| time (UTC) | temp F | wind direction | speed MPH | gust MPH | rain 1hr in | rain 24hr in | rain mn in | humidity % | barometer mb |
| 20260510084017 | 34 | 0.0 | 0.0 | 0.00 | 0.00 | 0.00 | 80 | 1016.1 | |
| 20260510083016 | 35 | 0.0 | 0.0 | 0.00 | 0.00 | 0.00 | 79 | 1015.9 | |
| 20260510082036 | 35 | 0.0 | 0.0 | 0.00 | 0.00 | 0.00 | 78 | 1015.9 | |
| 20260510081016 | 36 | 0.0 | 1.0 | 0.00 | 0.00 | 0.00 | 77 | 1015.7 | |
| 20260510080017 | 35 | 0.0 | 2.0 | 0.00 | 0.00 | 0.00 | 76 | 1015.6 | |
| 20260510075017 | 35 | 225 | 1.0 | 2.0 | 0.00 | 0.00 | 0.00 | 77 | 1015.6 |
| 20260510074017 | 36 | 225 | 1.0 | 1.0 | 0.00 | 0.00 | 0.00 | 77 | 1015.3 |
| 20260510073017 | 36 | 203 | 1.0 | 2.0 | 0.00 | 0.00 | 0.00 | 75 | 1015.3 |
| 20260510072019 | 36 | 225 | 3.0 | 3.0 | 0.00 | 0.00 | 0.00 | 73 | 1015.3 |
| 20260510071023 | 37 | 203 | 1.0 | 2.0 | 0.00 | 0.00 | 0.00 | 75 | 1015.3 |
| 20260510070022 | 37 | 225 | 1.0 | 2.0 | 0.00 | 0.00 | 0.00 | 73 | 1015.1 |
| 20260510065018 | 37 | 0.0 | 1.0 | 0.00 | 0.00 | 0.00 | 73 | 1015.1 | |
| 20260510064018 | 38 | 0.0 | 1.0 | 0.00 | 0.00 | 0.00 | 69 | 1015.1 | |
| 20260510063038 | 40 | 0.0 | 1.0 | 0.00 | 0.00 | 0.00 | 64 | 1015.1 | |
| 20260510062059 | 41 | 270 | 1.0 | 1.0 | 0.00 | 0.00 | 0.00 | 56 | 1015.1 |
| 20260510061022 | 41 | 270 | 1.0 | 1.0 | 0.00 | 0.00 | 0.00 | 56 | 1014.9 |
| 20260510060018 | 41 | 270 | 2.0 | 2.0 | 0.00 | 0.00 | 0.00 | 56 | 1014.9 |
| 20260510055039 | 41 | 270 | 2.0 | 2.0 | 0.00 | 0.00 | 0.00 | 55 | 1014.7 |
| 20260510054017 | 40 | 270 | 2.0 | 2.0 | 0.00 | 0.00 | 0.00 | 57 | 1014.8 |
| 20260510053017 | 40 | 248 | 1.0 | 2.0 | 0.00 | 0.00 | 0.00 | 58 | 1014.6 |
| 20260510052017 | 39 | 248 | 2.0 | 2.0 | 0.00 | 0.00 | 0.00 | 62 | 1014.5 |
| 20260510051017 | 42 | 270 | 1.0 | 2.0 | 0.00 | 0.00 | 0.00 | 54 | 1014.4 |
| 20260510050017 | 42 | 293 | 1.0 | 1.0 | 0.00 | 0.00 | 0.00 | 53 | 1014.1 |
| 20260510045017 | 43 | 270 | 1.0 | 2.0 | 0.00 | 0.00 | 0.00 | 52 | 1013.9 |
| 20260510044017 | 43 | 270 | 1.0 | 2.0 | 0.00 | 0.00 | 0.00 | 51 | 1013.9 |
| 20260510043018 | 44 | 293 | 1.0 | 1.0 | 0.00 | 0.00 | 0.00 | 50 | 1013.9 |
| 20260510042039 | 44 | 0.0 | 1.0 | 0.00 | 0.00 | 0.00 | 50 | 1013.7 | |
| 20260510041058 | 44 | 293 | 2.0 | 2.0 | 0.00 | 0.00 | 0.00 | 49 | 1013.8 |
| 20260510040017 | 44 | 293 | 2.0 | 2.0 | 0.00 | 0.00 | 0.00 | 51 | 1013.6 |
| 20260510035019 | 43 | 270 | 2.0 | 2.0 | 0.00 | 0.00 | 0.00 | 53 | 1013.4 |
| 20260510034017 | 42 | 0.0 | 1.0 | 0.00 | 0.00 | 0.00 | 57 | 1013.4 | |
| 20260510033018 | 42 | 338 | 1.0 | 2.0 | 0.00 | 0.00 | 0.00 | 58 | 1013.1 |
| 20260510032017 | 42 | 338 | 2.0 | 3.0 | 0.00 | 0.00 | 0.00 | 60 | 1013.0 |
| 20260510031017 | 43 | 338 | 1.0 | 3.0 | 0.00 | 0.00 | 0.00 | 60 | 1013.0 |
| 20260510030017 | 44 | 338 | 1.0 | 2.0 | 0.00 | 0.00 | 0.00 | 58 | 1013.0 |
| 20260510025017 | 44 | 338 | 1.0 | 3.0 | 0.00 | 0.00 | 0.00 | 57 | 1013.0 |
| 20260510024018 | 45 | 338 | 2.0 | 4.0 | 0.00 | 0.00 | 0.00 | 56 | 1012.9 |
| 20260510023018 | 46 | 338 | 4.0 | 9.0 | 0.00 | 0.00 | 0.00 | 52 | 1012.8 |
| 20260510022017 | 47 | 315 | 5.0 | 9.0 | 0.00 | 0.00 | 0.00 | 49 | 1012.7 |
| 20260510021017 | 48 | 315 | 6.0 | 9.0 | 0.00 | 0.00 | 0.00 | 49 | 1012.6 |
| 20260510020017 | 48 | 315 | 9.0 | 16.0 | 0.00 | 0.00 | 0.00 | 46 | 1012.4 |
| 20260510015017 | 49 | 315 | 10.0 | 15.0 | 0.00 | 0.00 | 0.00 | 48 | 1012.1 |
| 20260510014017 | 49 | 315 | 9.0 | 14.0 | 0.00 | 0.00 | 0.00 | 47 | 1011.8 |
| 20260510013019 | 50 | 315 | 8.0 | 15.0 | 0.00 | 0.00 | 0.00 | 49 | 1011.4 |
| 20260510012017 | 51 | 315 | 10.0 | 15.0 | 0.00 | 0.00 | 0.00 | 46 | 1010.9 |
| 20260510011017 | 52 | 315 | 8.0 | 17.0 | 0.00 | 0.00 | 0.00 | 45 | 1010.7 |
| 20260510010017 | 52 | 315 | 6.0 | 12.0 | 0.00 | 0.00 | 0.00 | 45 | 1010.3 |
| 20260510005017 | 53 | 338 | 6.0 | 11.0 | 0.00 | 0.00 | 0.00 | 47 | 1010.0 |
| 20260510004017 | 54 | 338 | 7.0 | 10.0 | 0.00 | 0.00 | 0.00 | 43 | 1009.9 |
| 20260510003017 | 54 | 315 | 4.0 | 8.0 | 0.00 | 0.00 | 0.00 | 43 | 1009.6 |
| 20260510002017 | 54 | 315 | 5.0 | 10.0 | 0.00 | 0.00 | 0.00 | 43 | 1009.4 |
| 20260510001017 | 56 | 315 | 8.0 | 12.0 | 0.00 | 0.00 | 0.00 | 39 | 1009.2 |
| 20260510000017 | 57 | 293 | 6.0 | 10.0 | 0.00 | 0.00 | 0.00 | 39 | 1009.0 |
| 20260509235017 | 56 | 293 | 8.0 | 11.0 | 0.00 | 0.00 | 0.00 | 38 | 1008.7 |
| 20260509234017 | 56 | 315 | 6.0 | 11.0 | 0.00 | 0.00 | 0.00 | 40 | 1008.6 |
| 20260509233017 | 56 | 315 | 7.0 | 10.0 | 0.00 | 0.00 | 0.00 | 41 | 1008.3 |
| 20260509232038 | 57 | 293 | 7.0 | 13.0 | 0.00 | 0.00 | 0.00 | 37 | 1008.1 |
| 20260509231057 | 57 | 293 | 8.0 | 13.0 | 0.00 | 0.00 | 0.00 | 34 | 1008.0 |
| 20260509230017 | 58 | 293 | 7.0 | 13.0 | 0.00 | 0.00 | 0.00 | 38 | 1008.0 |
| 20260509225017 | 59 | 293 | 9.0 | 16.0 | 0.00 | 0.00 | 0.00 | 33 | 1007.5 |
| 20260509224017 | 57 | 293 | 7.0 | 11.0 | 0.00 | 0.00 | 0.00 | 35 | 1007.3 |
| 20260509223018 | 57 | 293 | 12.0 | 19.0 | 0.00 | 0.00 | 0.00 | 36 | 1007.4 |
| 20260509222017 | 57 | 270 | 10.0 | 14.0 | 0.00 | 0.00 | 0.00 | 35 | 1007.0 |
| 20260509221017 | 58 | 270 | 12.0 | 16.0 | 0.00 | 0.00 | 0.00 | 38 | 1006.8 |
| 20260509220017 | 58 | 270 | 13.0 | 17.0 | 0.00 | 0.00 | 0.00 | 37 | 1006.8 |
| 20260509215017 | 58 | 270 | 11.0 | 15.0 | 0.00 | 0.00 | 0.00 | 38 | 1006.6 |
| 20260509214017 | 58 | 270 | 12.0 | 14.0 | 0.00 | 0.00 | 0.00 | 35 | 1006.5 |
| 20260509213017 | 60 | 270 | 12.0 | 20.0 | 0.00 | 0.00 | 0.00 | 37 | 1006.3 |
| 20260509212057 | 60 | 293 | 8.0 | 15.0 | 0.00 | 0.00 | 0.00 | 36 | 1006.2 |
| 20260509211017 | 59 | 270 | 12.0 | 17.0 | 0.00 | 0.00 | 0.00 | 39 | 1006.1 |
| 20260509210037 | 59 | 270 | 13.0 | 17.0 | 0.00 | 0.00 | 0.00 | 44 | 1006.0 |
| 20260509205017 | 57 | 270 | 11.0 | 14.0 | 0.00 | 0.00 | 0.00 | 44 | 1006.0 |
| 20260509204017 | 58 | 270 | 11.0 | 16.0 | 0.00 | 0.00 | 0.00 | 42 | 1005.8 |
| 20260509203038 | 57 | 270 | 13.0 | 17.0 | 0.00 | 0.00 | 0.00 | 44 | 1005.8 |
| 20260509202017 | 57 | 270 | 13.0 | 16.0 | 0.00 | 0.00 | 0.00 | 45 | 1005.6 |
| 20260509201017 | 57 | 270 | 14.0 | 18.0 | 0.00 | 0.00 | 0.00 | 44 | 1005.4 |
| 20260509200017 | 57 | 270 | 15.0 | 21.0 | 0.00 | 0.00 | 0.00 | 44 | 1005.5 |
| 20260509195017 | 57 | 270 | 13.0 | 18.0 | 0.00 | 0.00 | 0.00 | 48 | 1005.4 |
| 20260509194016 | 58 | 270 | 11.0 | 17.0 | 0.00 | 0.00 | 0.00 | 45 | 1005.2 |
| 20260509193016 | 58 | 270 | 10.0 | 15.0 | 0.00 | 0.00 | 0.00 | 47 | 1005.3 |
| 20260509192037 | 57 | 293 | 12.0 | 18.0 | 0.00 | 0.00 | 0.00 | 49 | 1005.3 |
| 20260509191017 | 58 | 270 | 11.0 | 15.0 | 0.00 | 0.00 | 0.00 | 51 | 1005.1 |
| 20260509190017 | 57 | 270 | 13.0 | 22.0 | 0.00 | 0.00 | 0.00 | 46 | 1005.0 |
| 20260509185016 | 56 | 270 | 14.0 | 18.0 | 0.00 | 0.00 | 0.00 | 49 | 1004.8 |
| 20260509184017 | 57 | 270 | 13.0 | 20.0 | 0.00 | 0.00 | 0.00 | 51 | 1004.7 |
| 20260509183016 | 58 | 248 | 14.0 | 20.0 | 0.00 | 0.00 | 0.00 | 52 | 1004.6 |
| 20260509182037 | 57 | 270 | 13.0 | 18.0 | 0.00 | 0.00 | 0.00 | 52 | 1004.6 |
| 20260509181016 | 57 | 270 | 12.0 | 17.0 | 0.00 | 0.00 | 0.00 | 52 | 1004.4 |
| 20260509180017 | 57 | 248 | 12.0 | 17.0 | 0.00 | 0.00 | 0.00 | 57 | 1004.6 |
| 20260509175016 | 57 | 270 | 13.0 | 20.0 | 0.00 | 0.00 | 0.00 | 59 | 1004.5 |
| 20260509174037 | 57 | 270 | 13.0 | 18.0 | 0.00 | 0.00 | 0.00 | 56 | 1004.4 |
| 20260509173017 | 56 | 248 | 13.0 | 17.0 | 0.00 | 0.00 | 0.00 | 59 | 1004.4 |
| 20260509172037 | 56 | 270 | 12.0 | 17.0 | 0.00 | 0.00 | 0.00 | 57 | 1004.3 |
| 20260509171017 | 55 | 248 | 13.0 | 17.0 | 0.00 | 0.00 | 0.00 | 60 | 1004.3 |
| 20260509170016 | 55 | 248 | 13.0 | 20.0 | 0.00 | 0.00 | 0.00 | 65 | 1004.3 |
| 20260509165016 | 55 | 248 | 15.0 | 19.0 | 0.00 | 0.00 | 0.00 | 66 | 1004.3 |
| 20260509164016 | 53 | 248 | 15.0 | 19.0 | 0.00 | 0.00 | 0.00 | 66 | 1004.3 |
| 20260509163016 | 52 | 248 | 16.0 | 21.0 | 0.00 | 0.00 | 0.00 | 70 | 1004.2 |
| 20260509162016 | 53 | 248 | 15.0 | 21.0 | 0.00 | 0.00 | 0.00 | 68 | 1004.2 |
| 20260509161016 | 52 | 248 | 14.0 | 21.0 | 0.00 | 0.00 | 0.00 | 70 | 1003.9 |
| 20260509160016 | 52 | 248 | 13.0 | 18.0 | 0.00 | 0.00 | 0.00 | 69 | 1003.8 |
| 20260509155017 | 52 | 248 | 12.0 | 16.0 | 0.00 | 0.00 | 0.00 | 68 | 1003.9 |
| 20260509154017 | 52 | 270 | 8.0 | 11.0 | 0.00 | 0.00 | 0.00 | 69 | 1003.9 |
| 20260509153017 | 51 | 270 | 9.0 | 13.0 | 0.00 | 0.00 | 0.00 | 69 | 1003.6 |
| 20260509152016 | 51 | 270 | 11.0 | 16.0 | 0.00 | 0.00 | 0.00 | 68 | 1003.7 |
| 20260509151016 | 51 | 270 | 12.0 | 17.0 | 0.00 | 0.00 | 0.00 | 66 | 1003.6 |
| 20260509150016 | 52 | 270 | 11.0 | 15.0 | 0.00 | 0.00 | 0.00 | 64 | 1003.5 |
| 20260509145016 | 52 | 293 | 11.0 | 16.0 | 0.00 | 0.00 | 0.00 | 62 | 1003.5 |
| 20260509144016 | 52 | 293 | 10.0 | 17.0 | 0.00 | 0.00 | 0.00 | 59 | 1003.4 |
| 20260509143016 | 53 | 270 | 8.0 | 13.0 | 0.00 | 0.00 | 0.00 | 58 | 1003.3 |
| 20260509142016 | 52 | 248 | 8.0 | 10.0 | 0.00 | 0.00 | 0.00 | 58 | 1003.5 |
| 20260509141036 | 52 | 248 | 7.0 | 10.0 | 0.00 | 0.00 | 0.00 | 59 | 1003.4 |
| 20260509140037 | 52 | 248 | 8.0 | 10.0 | 0.00 | 0.00 | 0.00 | 58 | 1003.3 |
| 20260509135016 | 51 | 248 | 7.0 | 9.0 | 0.00 | 0.00 | 0.00 | 61 | 1003.3 |
| 20260509134016 | 51 | 248 | 7.0 | 10.0 | 0.00 | 0.00 | 0.00 | 60 | 1003.0 |
| 20260509133016 | 50 | 248 | 6.0 | 9.0 | 0.00 | 0.00 | 0.00 | 61 | 1002.9 |
| 20260509132016 | 51 | 248 | 7.0 | 9.0 | 0.00 | 0.00 | 0.00 | 60 | 1002.7 |
| 20260509131016 | 50 | 248 | 6.0 | 8.0 | 0.00 | 0.00 | 0.00 | 61 | 1002.5 |
| 20260509130016 | 50 | 248 | 5.0 | 7.0 | 0.00 | 0.00 | 0.00 | 63 | 1002.4 |
| 20260509125017 | 50 | 248 | 6.0 | 7.0 | 0.00 | 0.00 | 0.00 | 61 | 1002.2 |
| 20260509124017 | 50 | 248 | 6.0 | 8.0 | 0.00 | 0.00 | 0.00 | 63 | 1002.0 |
| 20260509123017 | 50 | 225 | 6.0 | 9.0 | 0.00 | 0.00 | 0.00 | 63 | 1001.9 |
| 20260509122036 | 50 | 225 | 6.0 | 9.0 | 0.00 | 0.00 | 0.00 | 64 | 1001.9 |
| 20260509121016 | 49 | 248 | 7.0 | 9.0 | 0.00 | 0.00 | 0.00 | 63 | 1001.6 |
| 20260509120016 | 49 | 248 | 5.0 | 6.0 | 0.00 | 0.00 | 0.00 | 65 | 1001.2 |
| 20260509115016 | 49 | 270 | 3.0 | 4.0 | 0.00 | 0.00 | 0.00 | 68 | 1000.9 |
| 20260509114016 | 49 | 248 | 5.0 | 6.0 | 0.00 | 0.00 | 0.00 | 65 | 1001.0 |
| 20260509113016 | 49 | 248 | 5.0 | 6.0 | 0.00 | 0.00 | 0.00 | 65 | 1000.9 |
| 20260509112018 | 49 | 270 | 4.0 | 5.0 | 0.00 | 0.00 | 0.00 | 64 | 1000.6 |
| 20260509111016 | 49 | 248 | 5.0 | 6.0 | 0.00 | 0.00 | 0.00 | 66 | 1000.5 |
| 20260509110016 | 49 | 248 | 6.0 | 7.0 | 0.00 | 0.00 | 0.00 | 66 | 1000.6 |
| 20260509105016 | 50 | 248 | 5.0 | 8.0 | 0.00 | 0.00 | 0.00 | 65 | 1000.5 |
| 20260509104036 | 49 | 270 | 6.0 | 8.0 | 0.00 | 0.00 | 0.00 | 68 | 1000.3 |
| 20260509103036 | 48 | 248 | 6.0 | 8.0 | 0.00 | 0.00 | 0.00 | 72 | 1000.2 |
| 20260509102016 | 49 | 248 | 6.0 | 8.0 | 0.00 | 0.00 | 0.00 | 71 | 1000.1 |
| 20260509101036 | 49 | 248 | 5.0 | 6.0 | 0.00 | 0.00 | 0.00 | 71 | 999.8 |
| 20260509100016 | 48 | 225 | 5.0 | 6.0 | 0.00 | 0.00 | 0.00 | 72 | 999.7 |
| 20260509095040 | 47 | 225 | 5.0 | 6.0 | 0.00 | 0.00 | 0.00 | 74 | 999.8 |
| 20260509094017 | 46 | 248 | 4.0 | 6.0 | 0.00 | 0.00 | 0.00 | 77 | 999.8 |
| 20260509093016 | 45 | 225 | 2.0 | 5.0 | 0.00 | 0.00 | 0.00 | 77 | 999.5 |
| 20260509092015 | 45 | 0.0 | 1.0 | 0.00 | 0.00 | 0.00 | 78 | 999.3 | |
| 20260509091015 | 45 | 0.0 | 1.0 | 0.00 | 0.00 | 0.00 | 77 | 999.5 | |
| 20260509090016 | 45 | 203 | 1.0 | 2.0 | 0.00 | 0.00 | 0.00 | 77 | 999.7 |
| 20260509085015 | 45 | 0.0 | 0.0 | 0.00 | 0.00 | 0.00 | 75 | 999.8 |